createdAt,value
2018-04-23T00:00:38.637Z,6.77
2018-04-23T00:03:06.215Z,6.87
2018-04-23T00:05:33.768Z,7.33
2018-04-23T00:08:01.320Z,7.17
2018-04-23T00:10:28.900Z,7.70
2018-04-23T00:12:56.479Z,7.57
2018-04-23T00:15:24.081Z,7.20
2018-04-23T00:17:51.888Z,7.07
2018-04-23T00:20:19.461Z,7.17
2018-04-23T00:22:47.008Z,6.73
2018-04-23T00:25:14.559Z,7.37
2018-04-23T00:27:42.328Z,6.83
2018-04-23T00:30:09.875Z,7.60
2018-04-23T00:32:37.431Z,6.93
2018-04-23T00:35:04.984Z,7.93
2018-04-23T00:37:32.546Z,7.50
2018-04-23T00:40:00.110Z,7.60
2018-04-23T00:42:27.680Z,8.47
2018-04-23T00:44:55.254Z,7.40
2018-04-23T00:47:22.833Z,8.93
2018-04-23T00:49:50.406Z,8.53
2018-04-23T00:52:17.965Z,10.63
2018-04-23T00:54:45.547Z,9.33
2018-04-23T00:57:13.109Z,9.30
2018-04-23T00:59:40.654Z,8.87
2018-04-23T01:02:08.278Z,9.07
2018-04-23T01:04:35.834Z,9.03
2018-04-23T01:07:03.398Z,8.00
2018-04-23T01:09:31.022Z,9.83
2018-04-23T01:11:58.624Z,9.43
2018-04-23T01:14:26.212Z,10.03
2018-04-23T01:16:53.797Z,8.57
2018-04-23T01:19:21.362Z,8.23
2018-04-23T01:21:49.176Z,10.90
2018-04-23T01:24:16.763Z,11.03
2018-04-23T01:26:44.374Z,10.33
2018-04-23T01:29:11.943Z,10.67
2018-04-23T01:31:39.497Z,9.37
2018-04-23T01:34:07.079Z,9.47
2018-04-23T01:36:34.659Z,8.80
2018-04-23T01:39:02.260Z,9.33
2018-04-23T01:41:29.806Z,9.10
2018-04-23T01:43:57.373Z,9.23
2018-04-23T01:46:24.959Z,7.80
2018-04-23T01:48:52.535Z,8.57
2018-04-23T01:51:20.104Z,8.90
2018-04-23T01:53:47.732Z,8.67
2018-04-23T01:56:15.296Z,8.60
2018-04-23T01:58:42.855Z,9.30
2018-04-23T02:01:10.392Z,8.87
2018-04-23T02:03:38.160Z,9.13
2018-04-23T02:06:05.703Z,8.60
2018-04-23T02:08:33.259Z,9.40
2018-04-23T02:11:00.811Z,9.57
2018-04-23T02:13:28.389Z,9.47
2018-04-23T02:15:55.950Z,9.97
2018-04-23T02:18:23.524Z,10.00
2018-04-23T02:20:51.097Z,10.30
2018-04-23T02:23:18.664Z,9.57
2018-04-23T02:25:46.228Z,9.10
2018-04-23T02:28:13.807Z,9.47
2018-04-23T02:30:41.373Z,9.20
2018-04-23T02:33:08.934Z,8.63
2018-04-23T02:35:36.510Z,8.63
2018-04-23T02:38:04.060Z,8.83
2018-04-23T02:40:31.613Z,9.37
2018-04-23T02:42:59.247Z,9.37
2018-04-23T02:45:26.895Z,8.90
2018-04-23T02:47:54.530Z,9.30
2018-04-23T02:50:22.203Z,9.40
2018-04-23T02:52:49.764Z,9.70
2018-04-23T02:55:17.329Z,9.60
2018-04-23T02:57:44.973Z,8.60
2018-04-23T03:00:12.551Z,7.93
2018-04-23T03:02:40.220Z,9.40
2018-04-23T03:05:07.831Z,9.47
2018-04-23T03:07:35.444Z,9.87
2018-04-23T03:10:03.176Z,9.37
2018-04-23T03:12:30.795Z,9.60
2018-04-23T03:14:58.365Z,10.80
2018-04-23T03:17:26.161Z,9.93
2018-04-23T03:19:53.712Z,11.80
2018-04-23T03:22:21.253Z,10.13
2018-04-23T03:24:48.933Z,10.27
2018-04-23T03:27:16.501Z,10.40
2018-04-23T03:29:44.123Z,10.80
2018-04-23T03:32:11.829Z,9.97
2018-04-23T03:34:39.465Z,10.83
2018-04-23T03:37:07.454Z,9.97
2018-04-23T03:39:35.036Z,9.90
2018-04-23T03:42:02.678Z,9.20
2018-04-23T03:44:30.299Z,9.53
2018-04-23T03:46:57.882Z,9.70
2018-04-23T03:49:25.498Z,10.77
2018-04-23T03:51:53.139Z,10.20
2018-04-23T03:54:20.685Z,11.07
2018-04-23T03:56:48.582Z,10.67
2018-04-23T03:59:16.227Z,11.97
2018-04-23T04:01:43.845Z,11.37
2018-04-23T04:04:11.557Z,12.70
2018-04-23T04:06:39.154Z,13.33
2018-04-23T04:09:06.732Z,12.50
2018-04-23T04:11:34.328Z,13.97
2018-04-23T04:17:05.477Z,13.43
2018-04-23T04:19:33.088Z,14.83
2018-04-23T04:22:01.261Z,13.80
2018-04-23T04:24:28.834Z,15.43
2018-04-23T04:26:56.397Z,15.40
2018-04-23T04:29:24.200Z,16.70
2018-04-23T04:31:51.792Z,17.03
2018-04-23T04:34:19.411Z,16.77
2018-04-23T04:36:47.786Z,17.73
2018-04-23T04:39:15.447Z,16.40
2018-04-23T04:41:43.011Z,18.43
2018-04-23T04:44:10.691Z,17.07
2018-04-23T04:46:38.256Z,16.53
2018-04-23T04:49:05.934Z,17.47
2018-04-23T04:51:33.510Z,17.77
2018-04-23T04:54:01.933Z,15.57
2018-04-23T04:56:29.543Z,16.13
2018-04-23T04:58:57.152Z,15.67
2018-04-23T06:32:21.802Z,7.33
2018-04-23T06:34:49.361Z,7.80
2018-04-23T06:37:16.975Z,8.13
2018-04-23T06:39:44.609Z,8.50
2018-04-23T06:42:12.190Z,9.27
2018-04-23T06:44:39.053Z,9.43
2018-04-23T06:47:06.675Z,8.90
2018-04-23T06:49:34.245Z,8.93
2018-04-23T06:52:01.933Z,9.50
2018-04-23T06:54:29.514Z,9.20
2018-04-23T06:56:57.070Z,9.37
2018-04-23T06:59:24.650Z,9.70
2018-04-23T07:01:52.248Z,10.27
2018-04-23T07:04:19.854Z,9.97
2018-04-23T07:06:47.480Z,11.07
2018-04-23T07:09:15.071Z,11.03
2018-04-23T07:11:42.681Z,12.13
2018-04-23T07:14:10.246Z,12.07
2018-04-23T07:16:37.858Z,12.27
2018-04-23T07:19:05.418Z,12.87
2018-04-23T07:21:32.997Z,12.60
2018-04-23T07:24:00.590Z,12.80
2018-04-23T07:26:28.147Z,13.47
2018-04-23T07:28:55.731Z,13.60
2018-04-23T07:31:23.316Z,13.87
2018-04-23T07:33:50.891Z,14.20
2018-04-23T07:36:18.455Z,13.30
2018-04-23T07:38:46.005Z,13.50
2018-04-23T07:41:13.629Z,14.07
2018-04-23T07:43:41.209Z,12.50
2018-04-23T07:46:08.787Z,13.53
2018-04-23T07:48:36.375Z,13.23
2018-04-23T07:51:03.930Z,13.70
2018-04-23T07:53:31.515Z,12.63
2018-04-23T07:55:59.149Z,12.17
2018-04-23T07:58:26.715Z,12.57
2018-04-23T08:00:54.289Z,13.33
2018-04-23T08:03:21.900Z,12.50
2018-04-23T08:05:49.469Z,12.87
2018-04-23T08:08:17.978Z,12.13
2018-04-23T08:10:45.543Z,11.70
2018-04-23T08:13:13.093Z,12.53
2018-04-23T08:15:40.665Z,12.33
2018-04-23T08:18:08.321Z,12.77
2018-04-23T08:20:35.888Z,13.77
2018-04-23T08:23:03.501Z,13.17
2018-04-23T08:25:31.224Z,13.17
2018-04-23T08:27:58.791Z,13.63
2018-04-23T08:30:26.338Z,12.83
2018-04-23T08:32:53.922Z,13.13
2018-04-23T08:35:21.685Z,13.93
2018-04-23T08:37:49.297Z,14.57
2018-04-23T08:40:16.908Z,13.60
2018-04-23T08:42:44.485Z,13.90
2018-04-23T08:45:12.089Z,14.20
2018-04-23T08:47:39.696Z,14.43
2018-04-23T08:50:07.446Z,13.53
2018-04-23T08:52:35.001Z,14.30
2018-04-23T08:55:02.564Z,14.27
2018-04-23T08:57:30.128Z,14.57
2018-04-23T08:59:57.725Z,15.53
2018-04-23T09:02:25.288Z,15.23
2018-04-23T09:04:52.863Z,14.27
2018-04-23T09:07:20.522Z,14.93
2018-04-23T09:09:48.184Z,15.07
2018-04-23T09:12:15.748Z,16.50
2018-04-23T09:14:43.310Z,15.40
2018-04-23T09:17:10.869Z,15.57
2018-04-23T09:19:38.430Z,16.17
2018-04-23T09:22:06.010Z,16.37
2018-04-23T09:24:33.584Z,17.10
2018-04-23T09:27:01.229Z,17.77
2018-04-23T09:29:28.807Z,16.67
2018-04-23T09:31:56.393Z,18.83
2018-04-23T09:34:23.975Z,18.43
2018-04-23T09:36:51.566Z,17.23
2018-04-23T09:39:19.448Z,18.40
2018-04-23T09:41:47.024Z,17.73
2018-04-23T09:44:14.577Z,17.87
2018-04-23T09:46:42.233Z,16.90
2018-04-23T09:49:09.844Z,19.27
2018-04-23T09:51:37.409Z,17.40
2018-04-23T09:54:04.971Z,18.47
2018-04-23T09:56:32.554Z,17.77
2018-04-23T09:59:00.152Z,18.20
2018-04-23T10:01:29.516Z,18.37
2018-04-23T10:04:11.983Z,16.43
2018-04-23T10:06:39.557Z,17.90
2018-04-23T10:09:07.277Z,17.40
2018-04-23T10:11:35.048Z,18.83
2018-04-23T10:14:02.638Z,16.63
2018-04-23T10:16:30.506Z,17.07
2018-04-23T10:18:58.075Z,17.47
2018-04-23T10:21:25.659Z,16.43
2018-04-23T10:23:53.236Z,13.33
2018-04-23T10:26:20.812Z,13.83
2018-04-23T10:28:48.411Z,13.67
2018-04-23T10:31:16.014Z,13.73
2018-04-23T10:33:43.585Z,12.83
2018-04-23T10:36:11.191Z,12.70
2018-04-23T10:38:38.852Z,11.77
2018-04-23T10:41:06.470Z,11.97
2018-04-23T10:43:34.150Z,12.03
2018-04-23T10:46:01.742Z,12.03
2018-04-23T10:48:29.710Z,12.70
2018-04-23T10:50:57.412Z,11.47
2018-04-23T10:53:24.975Z,12.07
2018-04-23T10:55:52.549Z,12.20
2018-04-23T10:58:20.345Z,12.37
2018-04-23T11:00:47.964Z,11.40
2018-04-23T11:03:16.136Z,11.53
2018-04-23T11:05:43.720Z,10.27
2018-04-23T11:08:11.471Z,9.73
2018-04-23T11:10:39.049Z,9.47
2018-04-23T11:13:06.589Z,8.83
2018-04-23T11:15:34.170Z,8.20
2018-04-23T11:18:01.751Z,7.40
2018-04-23T11:20:29.319Z,7.73
2018-04-23T11:22:56.879Z,8.03
2018-04-23T11:25:24.420Z,8.27
2018-04-23T11:27:51.984Z,7.67
2018-04-23T11:30:19.570Z,7.63
2018-04-23T11:32:47.157Z,7.60
2018-04-23T11:35:14.711Z,8.13
2018-04-23T11:37:42.262Z,7.63
2018-04-23T11:40:09.818Z,7.97
2018-04-23T11:42:37.688Z,7.30
2018-04-23T11:45:05.280Z,8.47
2018-04-23T11:47:32.853Z,7.10
2018-04-23T11:50:00.667Z,7.20
2018-04-23T11:52:28.267Z,6.70
2018-04-23T11:54:55.814Z,6.97
2018-04-23T11:57:23.377Z,6.27
2018-04-23T11:59:50.931Z,7.23
2018-04-23T12:02:18.469Z,7.50
2018-04-23T12:04:46.061Z,7.13
2018-04-23T12:07:13.653Z,6.33
2018-04-23T12:09:41.233Z,6.27
2018-04-23T12:12:08.813Z,6.30
2018-04-23T12:14:36.422Z,6.70
2018-04-23T12:17:03.983Z,7.23
2018-04-23T12:19:31.539Z,7.70
2018-04-23T12:21:59.158Z,6.63
2018-04-23T12:24:26.716Z,7.27
2018-04-23T12:26:54.301Z,7.37
2018-04-23T12:29:22.141Z,7.00
2018-04-23T12:31:49.699Z,7.07
2018-04-23T12:34:17.398Z,7.57
2018-04-23T12:36:45.131Z,5.93
2018-04-23T12:39:12.686Z,5.50
2018-04-23T12:41:40.275Z,6.47
2018-04-23T12:44:07.835Z,5.70
2018-04-23T12:46:35.404Z,5.97
2018-04-23T12:49:03.007Z,5.10
2018-04-23T12:51:30.562Z,5.50
2018-04-23T12:53:58.220Z,5.63
2018-04-23T12:56:25.829Z,5.40
2018-04-23T12:58:53.374Z,5.53
2018-04-23T13:01:20.962Z,6.37
2018-04-23T13:03:48.512Z,6.50
2018-04-23T13:06:16.101Z,5.90
2018-04-23T13:08:43.667Z,5.17
2018-04-23T13:11:11.225Z,5.40
2018-04-23T13:13:38.853Z,5.33
2018-04-23T13:16:06.529Z,5.30
2018-04-23T13:18:34.081Z,4.50
2018-04-23T13:21:01.646Z,5.00
2018-04-23T13:23:29.197Z,4.80
2018-04-23T13:25:56.934Z,5.13
2018-04-23T13:28:24.473Z,5.03
2018-04-23T13:30:52.025Z,4.43
2018-04-23T13:33:19.584Z,5.40
2018-04-23T13:35:47.144Z,4.87
2018-04-23T13:38:14.707Z,4.73
2018-04-23T13:40:42.277Z,4.63
2018-04-23T13:43:09.895Z,4.50
2018-04-23T13:45:37.572Z,4.23
2018-04-23T13:48:05.193Z,4.07
2018-04-23T13:50:32.968Z,4.60
2018-04-23T13:53:00.567Z,4.30
2018-04-23T13:55:28.183Z,5.70
2018-04-23T13:57:55.814Z,4.80
2018-04-23T14:00:23.352Z,5.13
2018-04-23T14:02:51.008Z,4.40
2018-04-23T14:05:18.600Z,5.40
2018-04-23T14:07:46.147Z,5.30
2018-04-23T14:10:13.701Z,5.27
2018-04-23T14:12:41.296Z,3.90
2018-04-23T14:15:08.856Z,4.93
2018-04-23T14:17:36.405Z,4.30
2018-04-23T14:20:03.978Z,4.73
2018-04-23T14:22:31.667Z,4.23
2018-04-23T14:24:59.456Z,5.00
2018-04-23T14:27:27.018Z,4.37
2018-04-23T14:29:54.604Z,4.47
2018-04-23T14:32:22.171Z,5.53
2018-04-23T14:34:49.737Z,5.40
2018-04-23T14:37:17.337Z,5.07
2018-04-23T14:39:44.966Z,4.70
2018-04-23T14:42:12.542Z,4.30
2018-04-23T14:44:40.146Z,4.30
2018-04-23T14:47:07.711Z,4.67
2018-04-23T14:49:35.268Z,4.67
2018-04-23T14:52:03.004Z,4.00
2018-04-23T14:54:30.560Z,4.13
2018-04-23T14:56:58.136Z,4.63
2018-04-23T14:59:25.709Z,5.27
2018-04-23T15:01:53.302Z,5.43
2018-04-23T15:04:20.861Z,4.87
2018-04-23T15:06:48.422Z,5.40
2018-04-23T15:09:16.169Z,5.43
2018-04-23T15:11:43.701Z,4.40
2018-04-23T15:14:11.329Z,4.40
2018-04-23T15:16:38.881Z,4.60
2018-04-23T15:19:06.451Z,4.70
2018-04-23T15:21:34.089Z,4.53
2018-04-23T15:24:01.654Z,4.07
2018-04-23T15:26:29.295Z,4.97
2018-04-23T15:28:56.823Z,4.83
2018-04-23T15:31:24.878Z,4.97
2018-04-23T15:33:52.467Z,4.97
2018-04-23T15:36:20.195Z,4.87
2018-04-23T15:38:47.776Z,5.67
2018-04-23T15:41:15.335Z,4.77
2018-04-23T15:43:42.917Z,5.40
2018-04-23T15:46:10.487Z,4.97
2018-04-23T15:48:38.045Z,4.40
2018-04-23T15:51:05.637Z,4.70
2018-04-23T15:53:33.461Z,5.50
2018-04-23T15:56:01.160Z,5.10
2018-04-23T15:58:28.897Z,5.37
2018-04-23T16:00:56.417Z,5.70
2018-04-23T16:03:23.969Z,5.00
2018-04-23T16:05:51.531Z,5.00
2018-04-23T16:08:19.081Z,5.10
2018-04-23T16:10:46.673Z,5.30
2018-04-23T16:13:14.386Z,5.13
2018-04-23T16:15:41.948Z,5.13
2018-04-23T16:18:09.609Z,4.77
2018-04-23T16:20:37.165Z,5.13
2018-04-23T16:23:05.056Z,5.23
2018-04-23T16:25:32.621Z,4.63
2018-04-23T16:28:00.178Z,4.53
2018-04-23T16:30:27.783Z,5.23
2018-04-23T16:32:55.556Z,5.37
2018-04-23T16:35:23.924Z,6.20
2018-04-23T16:37:51.721Z,4.77
2018-04-23T16:40:19.277Z,5.40
2018-04-23T16:42:46.818Z,5.33
2018-04-23T16:45:14.696Z,5.23
2018-04-23T16:47:42.260Z,5.70
2018-04-23T16:50:10.683Z,5.77
2018-04-23T16:52:38.301Z,6.00
2018-04-23T16:55:05.862Z,5.43
2018-04-23T16:57:33.497Z,6.07
2018-04-23T17:00:01.086Z,6.13
2018-04-23T17:02:28.821Z,6.27
2018-04-23T17:04:56.379Z,5.67
2018-04-23T17:07:23.942Z,5.57
2018-04-23T17:09:51.510Z,6.00
2018-04-23T17:12:19.140Z,5.57
2018-04-23T17:14:46.906Z,5.73
2018-04-23T17:17:14.453Z,5.60
2018-04-23T17:19:42.007Z,5.90
2018-04-23T17:22:09.554Z,5.73
2018-04-23T17:24:37.180Z,6.40
2018-04-23T17:27:04.712Z,6.07
2018-04-23T17:29:32.349Z,5.97
2018-04-23T17:31:59.870Z,5.23
2018-04-23T17:34:27.454Z,5.67
2018-04-23T17:36:55.283Z,5.37
2018-04-23T17:39:22.853Z,5.67
2018-04-23T17:41:51.124Z,4.90
2018-04-23T17:44:20.424Z,5.50
2018-04-23T17:46:49.429Z,5.40
2018-04-23T17:49:17.796Z,5.77
2018-04-23T17:51:46.833Z,5.60
2018-04-23T17:54:15.173Z,5.00
2018-04-23T17:56:44.978Z,5.90
2018-04-23T17:59:14.084Z,5.70
2018-04-23T18:01:41.940Z,6.47
2018-04-23T18:04:09.938Z,6.70
2018-04-23T18:06:37.514Z,6.17
2018-04-23T18:09:05.957Z,5.53
2018-04-23T18:11:33.721Z,6.17
2018-04-23T18:14:01.334Z,5.93
2018-04-23T18:16:30.013Z,6.57
2018-04-23T18:18:57.999Z,6.60
2018-04-23T18:21:26.131Z,6.97
2018-04-23T18:23:53.683Z,6.10
2018-04-23T18:26:21.742Z,6.70
2018-04-23T18:28:49.283Z,6.60
2018-04-23T18:31:16.851Z,7.43
2018-04-23T18:33:44.499Z,7.17
2018-04-23T18:36:12.101Z,7.03
2018-04-23T18:38:39.701Z,6.73
2018-04-23T18:41:07.326Z,6.90
2018-04-23T18:43:34.923Z,7.43
2018-04-23T18:46:02.501Z,6.90
2018-04-23T18:48:30.105Z,7.60
2018-04-23T18:50:58.064Z,7.13
2018-04-23T18:53:25.772Z,6.83
2018-04-23T18:55:53.573Z,6.63
2018-04-23T18:58:21.145Z,7.47
2018-04-23T19:00:48.785Z,6.70
2018-04-23T19:03:16.494Z,6.73
2018-04-23T19:05:44.111Z,6.37
2018-04-23T19:08:11.685Z,6.80
2018-04-23T19:10:39.299Z,6.60
2018-04-23T19:13:07.624Z,6.47
2018-04-23T19:15:35.230Z,6.27
2018-04-23T19:18:02.777Z,6.70
2018-04-23T19:20:30.702Z,7.47
2018-04-23T19:22:58.356Z,6.40
2018-04-23T19:25:26.473Z,6.47
2018-04-23T19:27:54.437Z,6.60
2018-04-23T19:30:22.310Z,6.10
2018-04-23T19:32:49.893Z,6.23
2018-04-23T19:35:17.541Z,6.20
2018-04-23T19:37:45.267Z,6.17
2018-04-23T19:40:12.883Z,6.50
2018-04-23T19:42:40.446Z,6.60
2018-04-23T19:45:08.006Z,6.73
2018-04-23T19:47:35.565Z,6.80
2018-04-23T19:50:03.095Z,7.53
2018-04-23T19:52:30.656Z,7.50
2018-04-23T19:54:58.373Z,7.17
2018-04-23T19:57:26.005Z,7.77
2018-04-23T19:59:54.390Z,7.63
2018-04-23T20:02:21.990Z,7.37
2018-04-23T20:04:49.568Z,7.47
2018-04-23T20:07:17.206Z,6.97
2018-04-23T20:09:44.787Z,7.47
2018-04-23T20:12:12.377Z,8.20
2018-04-23T20:14:39.996Z,7.70
2018-04-23T20:17:07.569Z,7.30
2018-04-23T20:19:35.355Z,7.57
2018-04-23T20:22:02.921Z,7.90
2018-04-23T20:24:30.517Z,7.67
2018-04-23T20:26:58.139Z,7.70
2018-04-23T20:29:25.723Z,8.03
2018-04-23T20:31:54.253Z,7.40
2018-04-23T20:34:21.819Z,7.20
2018-04-23T20:36:49.390Z,7.93
2018-04-23T20:39:17.111Z,7.83
2018-04-23T20:41:44.736Z,8.00
2018-04-23T20:44:12.345Z,7.33
2018-04-23T20:46:39.930Z,8.23
2018-04-23T20:49:07.566Z,7.87
2018-04-23T20:51:35.152Z,8.10
2018-04-23T20:54:02.711Z,7.93
2018-04-23T20:56:30.251Z,7.73
2018-04-23T20:58:57.845Z,8.57
2018-04-23T21:01:25.590Z,7.87
2018-04-23T21:03:53.136Z,8.07
2018-04-23T21:06:20.693Z,9.13
2018-04-23T21:08:48.250Z,9.50
2018-04-23T21:11:15.892Z,8.13
2018-04-23T21:13:43.453Z,8.37
2018-04-23T21:16:11.266Z,9.60
2018-04-23T21:18:38.865Z,9.97
2018-04-23T21:21:06.570Z,10.00
2018-04-23T21:23:34.188Z,9.03
2018-04-23T21:26:01.829Z,9.70
2018-04-23T21:28:29.376Z,10.03
2018-04-23T21:30:56.931Z,9.60
2018-04-23T21:33:24.473Z,10.17
2018-04-23T21:35:52.029Z,9.80
2018-04-23T21:38:19.603Z,9.77
2018-04-23T21:40:47.187Z,10.33
2018-04-23T21:43:14.762Z,8.80
2018-04-23T21:45:42.300Z,9.27
2018-04-23T21:48:09.893Z,8.90
2018-04-23T21:50:37.477Z,8.47
2018-04-23T21:53:05.027Z,8.80
2018-04-23T21:55:32.593Z,7.23
2018-04-23T21:58:00.128Z,6.50
2018-04-23T22:00:27.680Z,7.23
2018-04-23T22:02:55.268Z,5.97
2018-04-23T22:05:22.898Z,5.70
2018-04-23T22:07:50.416Z,5.40
2018-04-23T22:10:17.992Z,5.00
2018-04-23T22:12:45.555Z,4.87
2018-04-23T22:15:13.271Z,5.30
2018-04-23T22:17:40.840Z,4.60
2018-04-23T22:20:08.408Z,4.90
2018-04-23T22:22:35.953Z,4.60
2018-04-23T22:25:03.497Z,4.13
2018-04-23T22:27:31.059Z,4.40
2018-04-23T22:29:58.624Z,4.33
2018-04-23T22:32:26.200Z,4.17
2018-04-23T22:34:53.787Z,4.50
2018-04-23T22:37:21.446Z,4.13
2018-04-23T22:39:48.998Z,3.93
2018-04-23T22:42:16.598Z,4.70
2018-04-23T22:44:44.167Z,4.30
2018-04-23T22:47:11.735Z,3.40
2018-04-23T22:49:39.304Z,3.00
2018-04-23T22:52:06.867Z,3.50
2018-04-23T22:54:34.405Z,3.63
2018-04-23T22:57:02.024Z,3.40
2018-04-23T22:59:29.587Z,3.40
2018-04-23T23:01:57.138Z,3.83
2018-04-23T23:04:24.712Z,3.70
2018-04-23T23:06:52.311Z,3.37
2018-04-23T23:09:19.861Z,4.13
2018-04-23T23:11:47.441Z,3.20
2018-04-23T23:14:15.020Z,3.10
2018-04-23T23:16:42.602Z,3.40
2018-04-23T23:19:10.143Z,3.17
2018-04-23T23:21:37.739Z,3.33
2018-04-23T23:24:05.282Z,3.33
2018-04-23T23:26:32.820Z,3.50
2018-04-23T23:29:00.406Z,4.10
2018-04-23T23:31:28.014Z,3.70
2018-04-23T23:33:55.565Z,4.30
2018-04-23T23:36:23.117Z,5.00
2018-04-23T23:38:50.715Z,5.80
2018-04-23T23:41:18.277Z,5.30
2018-04-23T23:43:45.847Z,6.77
2018-04-23T23:46:13.395Z,6.83
2018-04-23T23:48:40.973Z,7.93
2018-04-23T23:51:08.527Z,8.03
2018-04-23T23:53:36.081Z,8.63
2018-04-23T23:56:03.656Z,9.03
2018-04-23T23:58:31.212Z,8.23
